Time;durP1;ratioP1;P1;durP2;ratioP2;P2;SDS_P1;SDS_P2;PMS_P1;PMS_P2;Temp;Humidity;BMP_temperature;BMP_pressure;BME280_temperature;BME280_humidity;BME280_pressure;Samples;Min_cycle;Max_cycle;Signal;HPM_P1;HPM_P2
2021/01/30 00:03:08;;;;;;;41.83;21.13;;;;;;;-1.20;77.87;98886.13;4921465;58;1138434;-88
2021/01/30 00:08:16;;;;;;;45.17;24.10;;;;;;;-1.16;77.82;98883.73;4900065;58;1138617;-89
2021/01/30 00:13:21;;;;;;;99.07;40.67;;;;;;;-1.09;78.26;98864.33;4954380;58;1138306;-88
2021/01/30 00:18:27;;;;;;;278.17;103.20;;;;;;;-1.01;78.34;98857.39;4919498;58;1138359;-88
2021/01/30 00:23:33;;;;;;;289.43;104.33;;;;;;;-0.93;78.22;98860.86;4927973;58;1142496;-88
2021/01/30 00:28:39;;;;;;;155.53;54.03;;;;;;;-0.87;78.43;98855.30;4945940;58;1142626;-88
2021/01/30 00:33:44;;;;;;;126.07;45.83;;;;;;;-0.81;78.34;98858.85;4918588;59;1140597;-88
2021/01/30 00:38:53;;;;;;;105.43;40.43;;;;;;;-0.81;78.18;98848.47;4930176;59;1140443;-88
2021/01/30 00:43:59;;;;;;;88.17;36.30;;;;;;;-0.80;78.00;98849.69;4922015;59;1140452;-88
2021/01/30 00:49:05;;;;;;;87.83;38.30;;;;;;;-0.80;77.88;98862.66;4919272;58;1138410;-88
2021/01/30 00:54:11;;;;;;;80.80;33.93;;;;;;;-0.75;78.25;98861.07;4899996;58;1138539;-88
2021/01/30 00:59:18;;;;;;;75.23;33.13;;;;;;;-0.73;77.99;98857.47;4969425;58;1138379;-88
2021/01/30 01:04:24;;;;;;;93.47;39.17;;;;;;;-0.72;78.01;98864.33;4938508;58;1138390;-88
2021/01/30 01:09:30;;;;;;;87.15;38.98;;;;;;;-0.72;77.84;98856.55;4912691;58;1139004;-88
2021/01/30 01:14:36;;;;;;;93.77;41.00;;;;;;;-0.72;77.84;98856.55;4934588;58;1138436;-88
2021/01/30 01:19:43;;;;;;;69.23;31.27;;;;;;;-0.69;78.10;98846.91;4909645;58;1138567;-88
2021/01/30 01:24:49;;;;;;;67.90;32.37;;;;;;;-0.85;77.46;98840.02;4955525;58;1138470;-88
2021/01/30 01:29:54;;;;;;;80.67;36.20;;;;;;;-1.00;77.40;98849.15;4961896;58;1138490;-88
2021/01/30 01:35:00;;;;;;;87.10;39.07;;;;;;;-1.11;77.57;98840.23;4920819;58;1138553;-88
2021/01/30 01:40:07;;;;;;;72.10;34.33;;;;;;;-1.18;77.71;98844.08;4981926;58;1136175;-88
2021/01/30 01:45:14;;;;;;;82.67;37.90;;;;;;;-1.25;77.82;98839.34;4935913;58;1138507;-88
2021/01/30 01:50:42;;;;;;;85.90;37.23;;;;;;;-1.29;78.06;98829.59;4932232;58;1138571;-89
2021/01/30 01:55:55;;;;;;;94.23;38.47;;;;;;;-1.17;78.78;98826.30;4911758;59;1138537;-88
2021/01/30 02:01:02;;;;;;;94.55;39.58;;;;;;;-1.13;78.57;98825.20;4904513;58;1138386;-88
2021/01/30 02:06:07;;;;;;;90.13;43.07;;;;;;;-1.02;79.03;98831.07;4896505;58;1138466;-88
2021/01/30 02:11:13;;;;;;;88.00;41.43;;;;;;;-0.95;78.97;98825.92;4931471;58;1138351;-88
2021/01/30 02:16:26;;;;;;;93.37;43.13;;;;;;;-0.88;78.89;98825.92;4931240;58;1138727;-89
2021/01/30 02:21:58;;;;;;;86.87;39.77;;;;;;;-0.90;78.56;98825.17;4924049;58;1138347;-88
2021/01/30 02:27:37;;;;;;;85.20;40.27;;;;;;;-0.92;78.48;98821.02;4942541;59;1138395;-88
2021/01/30 02:33:02;;;;;;;83.67;39.60;;;;;;;-1.01;78.18;98824.12;4946474;58;1138451;-88
2021/01/30 02:38:14;;;;;;;83.97;40.60;;;;;;;-1.06;78.58;98833.00;4910686;58;1138789;-88
2021/01/30 02:43:25;;;;;;;93.43;43.73;;;;;;;-1.03;78.75;98829.86;4920903;58;1138326;-88
2021/01/30 02:48:38;;;;;;;117.77;53.48;;;;;;;-1.01;78.93;98823.66;4913693;58;1138783;-88
2021/01/30 02:53:54;;;;;;;108.45;43.08;;;;;;;-0.99;78.78;98820.52;4914508;58;1140350;-88
2021/01/30 02:59:20;;;;;;;103.55;44.13;;;;;;;-0.93;79.11;98819.34;4918390;58;1140569;-88
2021/01/30 03:04:29;;;;;;;88.05;38.92;;;;;;;-0.92;78.89;98814.53;4928583;58;1140582;-88
2021/01/30 03:09:42;;;;;;;81.03;34.77;;;;;;;-0.94;78.76;98824.99;4933116;58;1138580;-88
2021/01/30 03:14:52;;;;;;;90.63;39.43;;;;;;;-0.91;78.90;98810.98;4944929;59;1138408;-88
2021/01/30 03:20:00;;;;;;;133.30;51.07;;;;;;;-0.92;78.93;98808.88;4931555;58;1138441;-87
2021/01/30 03:25:07;;;;;;;101.33;43.43;;;;;;;-0.85;79.19;98812.77;4928489;58;1140415;-88
2021/01/30 03:30:14;;;;;;;91.40;41.97;;;;;;;-0.90;78.65;98815.25;4926840;58;1140430;-88
2021/01/30 03:35:21;;;;;;;118.23;49.10;;;;;;;-0.97;78.62;98812.66;4957917;58;1138385;-88
2021/01/30 03:40:28;;;;;;;146.53;57.03;;;;;;;-0.97;79.10;98807.00;4897436;58;1140451;-88
2021/01/30 03:45:37;;;;;;;91.30;39.57;;;;;;;-0.91;79.22;98799.30;4953652;58;1140802;-88
2021/01/30 03:50:41;;;;;;;86.23;38.30;;;;;;;-0.88;79.22;98800.43;4960174;58;1138316;-88
2021/01/30 03:55:46;;;;;;;78.03;36.37;;;;;;;-0.89;78.99;98800.89;4920490;58;1138593;-88
2021/01/30 04:00:52;;;;;;;77.30;37.33;;;;;;;-0.89;79.11;98799.59;4936758;58;1138284;-87
2021/01/30 04:05:58;;;;;;;73.93;34.97;;;;;;;-0.87;79.15;98799.05;4955409;58;1138779;-87
2021/01/30 04:11:03;;;;;;;65.07;35.07;;;;;;;-0.85;79.15;98785.98;4920671;58;1138454;-87
2021/01/30 04:16:09;;;;;;;64.50;33.07;;;;;;;-0.85;79.11;98780.33;4955092;58;1138764;-88
2021/01/30 04:21:14;;;;;;;75.40;35.40;;;;;;;-0.82;79.27;98778.86;4921524;58;1138957;-87
2021/01/30 04:26:21;;;;;;;76.70;35.87;;;;;;;-0.82;79.27;98787.94;4910820;58;1138670;-87
2021/01/30 04:31:27;;;;;;;78.60;35.63;;;;;;;-0.91;78.62;98781.14;4921816;58;1139028;-88
2021/01/30 04:36:32;;;;;;;88.33;39.25;;;;;;;-1.04;78.59;98795.75;4916816;58;1138490;-88
2021/01/30 04:41:57;;;;;;;88.50;39.33;;;;;;;-1.22;78.58;98788.59;4919162;58;1138630;-88
2021/01/30 04:47:07;;;;;;;80.90;36.73;;;;;;;-1.25;79.18;98778.39;4934615;58;1138371;-87
2021/01/30 04:52:33;;;;;;;69.37;34.70;;;;;;;-1.29;79.07;98787.27;4927288;58;1138922;-88
2021/01/30 04:58:04;;;;;;;65.00;33.13;;;;;;;-1.34;79.22;98782.78;4911504;58;1138443;-87
2021/01/30 05:03:39;;;;;;;63.20;30.43;;;;;;;-1.28;79.78;98778.56;4933717;59;1138279;-87
2021/01/30 05:08:55;;;;;;;54.50;27.43;;;;;;;-1.25;79.63;98789.60;4938902;58;1138531;-87
2021/01/30 05:14:16;;;;;;;53.73;25.43;;;;;;;-1.22;79.85;98798.48;4966957;59;1136306;-87
2021/01/30 05:19:22;;;;;;;48.30;25.07;;;;;;;-1.19;79.81;98791.83;4930260;58;1138457;-87
2021/01/30 05:24:30;;;;;;;52.13;26.07;;;;;;;-1.19;79.85;98786.64;4913109;58;1142545;-87
2021/01/30 05:30:01;;;;;;;60.63;27.43;;;;;;;-1.21;79.77;98790.23;4947395;58;1138373;-88
2021/01/30 05:35:19;;;;;;;68.27;30.57;;;;;;;-1.26;79.58;98791.81;4913713;59;1138372;-87
2021/01/30 05:40:41;;;;;;;65.47;29.33;;;;;;;-1.33;79.74;98797.42;4923948;58;1139383;-87
2021/01/30 05:45:59;;;;;;;63.10;29.47;;;;;;;-1.33;79.98;98803.45;4991013;58;1138642;-87
2021/01/30 05:51:22;;;;;;;68.67;29.20;;;;;;;-1.31;80.21;98802.91;4896176;59;1138358;-87
2021/01/30 05:56:33;;;;;;;66.37;26.30;;;;;;;-1.32;80.27;98813.36;4987560;58;1138348;-87
2021/01/30 06:01:38;;;;;;;46.33;20.27;;;;;;;-1.34;80.51;98821.22;4875094;58;1138495;-87
2021/01/30 06:06:54;;;;;;;36.70;18.70;;;;;;;-1.37;80.79;98821.39;4923565;59;1138337;-88
2021/01/30 06:12:02;;;;;;;31.40;16.20;;;;;;;-1.37;80.91;98824.44;4910105;58;1138393;-87
2021/01/30 06:17:24;;;;;;;38.40;17.03;;;;;;;-1.35;80.76;98823.44;4940015;59;1138325;-86
2021/01/30 06:22:29;;;;;;;26.50;14.47;;;;;;;-1.36;80.85;98843.80;4896606;59;1146566;-86
2021/01/30 06:27:43;;;;;;;29.03;14.97;;;;;;;-1.33;81.32;98848.83;5008738;59;21197;-87
2021/01/30 06:32:53;;;;;;;15.33;8.23;;;;;;;-1.26;81.07;98848.04;4920776;58;1134267;-87
2021/01/30 06:38:15;;;;;;;28.97;11.90;;;;;;;-1.22;81.46;98859.92;4922736;58;1136410;-87
2021/01/30 06:43:37;;;;;;;23.40;9.80;;;;;;;-1.24;81.02;98869.08;4923185;58;1138636;-87
2021/01/30 06:48:50;;;;;;;37.70;17.40;;;;;;;-1.24;80.86;98872.14;4915364;58;1136688;-87
2021/01/30 06:53:57;;;;;;;22.80;11.10;;;;;;;-1.22;81.08;98880.18;4931112;59;1138656;-87
2021/01/30 06:59:10;;;;;;;43.73;17.10;;;;;;;-1.26;81.00;98893.42;4894387;58;1138289;-87
2021/01/30 07:04:53;;;;;;;42.23;18.07;;;;;;;-1.26;81.00;98893.42;4910998;59;1138324;-87
2021/01/30 07:10:15;;;;;;;23.53;13.07;;;;;;;-1.25;80.92;98906.31;4929279;58;1138359;-87
2021/01/30 07:15:31;;;;;;;28.07;14.07;;;;;;;-1.29;81.09;98915.17;4965822;58;1138398;-87
2021/01/30 07:20:57;;;;;;;50.17;23.43;;;;;;;-1.30;81.19;98921.73;4930246;59;1138487;-88
2021/01/30 07:26:10;;;;;;;27.97;12.17;;;;;;;-1.27;81.09;98926.76;4903987;59;1138261;-87
2021/01/30 07:31:27;;;;;;;107.00;75.55;;;;;;;-1.26;80.90;98938.81;5005355;59;1134243;-86
2021/01/30 07:36:42;;;;;;;218.67;161.82;;;;;;;-1.24;81.08;98939.56;4938418;58;1140926;-87
2021/01/30 07:42:05;;;;;;;90.90;57.30;;;;;;;-1.23;81.08;98955.05;4918905;58;1142776;-87
2021/01/30 07:47:19;;;;;;;56.03;28.47;;;;;;;-1.26;80.77;98968.64;4918888;58;1138351;-88
2021/01/30 07:52:28;;;;;;;64.58;31.02;;;;;;;-1.36;80.78;98972.16;4919935;59;1138470;-87
2021/01/30 07:57:56;;;;;;;35.20;17.12;;;;;;;-1.37;80.92;98980.02;4918282;58;1138549;-87
2021/01/30 08:03:21;;;;;;;35.92;16.67;;;;;;;-1.37;81.02;98979.56;4916078;58;1138483;-87
2021/01/30 08:08:41;;;;;;;44.83;21.10;;;;;;;-1.34;81.19;98983.30;4915833;59;1138512;-87
2021/01/30 08:14:19;;;;;;;49.67;21.27;;;;;;;-1.25;81.39;98994.48;4912909;58;1138435;-86
2021/01/30 08:19:59;;;;;;;362.33;182.50;;;;;;;-1.21;81.31;99002.46;4985277;59;1136436;-87
2021/01/30 08:25:12;;;;;;;53.67;31.40;;;;;;;-1.08;81.69;99011.74;4914233;59;1142981;-87
2021/01/30 08:30:23;;;;;;;24.43;13.43;;;;;;;-1.07;81.46;99016.02;4923297;59;1138562;-86
2021/01/30 08:35:35;;;;;;;46.30;27.10;;;;;;;-1.05;81.78;99012.84;4917974;58;1138287;-88
2021/01/30 08:41:00;;;;;;;24.70;11.93;;;;;;;-1.10;81.51;99018.77;4922876;58;1138619;-86
2021/01/30 08:46:33;;;;;;;175.90;105.60;;;;;;;-1.08;82.01;99031.20;4924576;58;1138611;-87
2021/01/30 08:51:44;;;;;;;662.33;328.65;;;;;;;-1.10;81.99;99035.63;4932124;58;1142780;-85
2021/01/30 08:56:52;;;;;;;67.90;37.13;;;;;;;-1.10;82.01;99040.36;4926636;58;1142750;-86
2021/01/30 09:01:58;;;;;;;31.07;16.37;;;;;;;-1.08;82.16;99045.47;4960695;58;1138274;-86
2021/01/30 09:07:03;;;;;;;95.17;38.70;;;;;;;-1.08;82.25;99048.90;4926224;58;1138584;-86
2021/01/30 09:12:20;;;;;;;132.13;39.47;;;;;;;-1.06;82.38;99054.81;4940438;57;1138704;-87
2021/01/30 09:17:35;;;;;;;81.00;32.73;;;;;;;-0.99;82.51;99073.50;4902116;58;1140579;-85
2021/01/30 09:23:18;;;;;;;82.17;33.80;;;;;;;-0.93;82.79;99076.23;4926648;58;1138617;-85
2021/01/30 09:28:30;;;;;;;85.73;23.90;;;;;;;-0.85;82.81;99079.24;4936425;58;1138872;-85
2021/01/30 09:33:44;;;;;;;112.53;31.90;;;;;;;-0.80;83.05;99091.06;4922789;58;1138701;-86
2021/01/30 09:38:59;;;;;;;94.32;26.40;;;;;;;-0.79;82.83;99086.71;4903136;59;1140867;-85
2021/01/30 09:44:20;;;;;;;171.73;47.77;;;;;;;-0.67;82.97;99093.83;4935369;59;1138204;-85
2021/01/30 09:49:44;;;;;;;99.70;26.40;;;;;;;-0.58;83.00;99093.31;4922180;58;1140563;-85
2021/01/30 09:55:00;;;;;;;81.93;22.13;;;;;;;-0.58;82.95;99089.88;4933535;58;1138474;-85
2021/01/30 10:00:16;;;;;;;134.93;29.93;;;;;;;-0.56;82.98;99103.61;4915148;58;1138382;-86
2021/01/30 10:05:23;;;;;;;81.63;21.63;;;;;;;-0.56;83.20;99110.11;4987232;58;1136418;-86
2021/01/30 10:10:32;;;;;;;210.37;47.93;;;;;;;-0.54;83.09;99113.00;4911476;58;1138436;-86
2021/01/30 10:15:39;;;;;;;275.13;56.53;;;;;;;-0.44;83.27;99116.75;4931605;58;1140437;-86
2021/01/30 10:20:56;;;;;;;176.47;40.70;;;;;;;-0.31;83.03;99123.44;4926629;58;1140485;-83
2021/01/30 10:26:28;;;;;;;259.10;51.00;;;;;;;-0.29;82.76;99134.55;4940420;58;1140671;-84
2021/01/30 10:32:02;;;;;;;219.80;49.00;;;;;;;-0.27;82.66;99139.20;5026536;59;21201;-85
2021/01/30 10:37:40;;;;;;;191.68;51.20;;;;;;;-0.23;82.56;99137.28;5019350;59;21143;-85
2021/01/30 10:42:49;;;;;;;305.57;71.60;;;;;;;-0.22;82.59;99142.39;4987247;59;1136279;-84
2021/01/30 10:48:07;;;;;;;277.10;63.53;;;;;;;-0.24;82.06;99148.13;4919726;58;1140559;-84
2021/01/30 10:53:37;;;;;;;141.00;38.57;;;;;;;-0.30;81.93;99156.71;4946211;58;1140524;-82
2021/01/30 10:58:44;;;;;;;120.37;28.10;;;;;;;-0.31;81.98;99155.06;4953193;58;1140545;-84
2021/01/30 11:04:05;;;;;;;122.77;32.97;;;;;;;-0.36;81.79;99148.36;4935044;59;1140833;-84
2021/01/30 11:09:28;;;;;;;49.50;13.80;;;;;;;-0.30;81.59;99152.36;4922713;59;1140391;-84
2021/01/30 11:14:34;;;;;;;109.55;31.40;;;;;;;-0.25;81.06;99159.45;5005065;58;1138419;-84
2021/01/30 11:20:01;;;;;;;53.65;15.32;;;;;;;-0.24;80.90;99156.39;4959961;57;1140531;-84
2021/01/30 11:25:11;;;;;;;249.45;91.22;;;;;;;-0.21;80.34;99166.16;4920212;57;1138471;-84
2021/01/30 11:30:23;;;;;;;131.83;52.27;;;;;;;-0.17;80.60;99170.73;4918644;57;1140398;-83
2021/01/30 11:35:34;;;;;;;428.63;211.90;;;;;;;-0.12;79.80;99163.50;4968374;58;1140526;-84
2021/01/30 11:40:41;;;;;;;26.17;17.23;;;;;;;-0.07;80.34;99167.98;4941111;58;1142744;-85
2021/01/30 11:45:48;;;;;;;19.97;13.60;;;;;;;-0.03;80.12;99173.40;4985249;58;1136339;-86
2021/01/30 11:50:54;;;;;;;9.87;6.33;;;;;;;0.01;79.31;99170.98;5017054;58;21162;-85
2021/01/30 11:56:00;;;;;;;7.60;4.73;;;;;;;-0.07;78.71;99175.78;4934135;58;1128025;-85
2021/01/30 12:01:05;;;;;;;115.73;61.77;;;;;;;-0.17;78.38;99175.92;4906663;58;1134277;-85
2021/01/30 12:06:12;;;;;;;12.87;7.27;;;;;;;-0.33;77.18;99182.42;4991014;58;1138606;-86
2021/01/30 12:11:19;;;;;;;17.37;10.43;;;;;;;-0.47;76.07;99188.37;5040208;58;21203;-85
2021/01/30 12:16:27;;;;;;;3.53;1.90;;;;;;;-0.49;75.54;99192.80;4913637;58;1134229;-84
2021/01/30 12:34:35;;;;;;;3.55;2.50;;;;;;;-0.59;72.79;99212.37;4789186;60;1130901;-90
2021/01/30 12:39:40;;;;;;;6.20;3.73;;;;;;;-0.64;72.57;99214.84;4731973;61;1134291;-90
2021/01/30 14:10:48;;;;;;;;;;;;;;;;;;;;;
2021/01/30 14:22:20;;;;;;;331.07;149.53;;;;;;;-1.07;69.55;99272.38;4646238;63;21220;-89
2021/01/30 14:27:25;;;;;;;454.60;177.00;;;;;;;-1.12;68.37;99283.45;4640077;63;21217;-89
2021/01/30 14:32:31;;;;;;;879.47;280.67;;;;;;;-1.08;68.82;99286.75;4651770;64;21176;-89
2021/01/30 14:37:37;;;;;;;209.47;76.53;;;;;;;-1.04;69.48;99296.49;4650813;64;21248;-88
2021/01/30 14:42:43;;;;;;;13.43;6.27;;;;;;;-1.06;69.08;99296.11;4654983;63;21199;-88
2021/01/30 14:47:49;;;;;;;9.07;4.47;;;;;;;-1.10;69.39;99304.98;4570704;64;21189;-89
2021/01/30 14:52:57;;;;;;;8.30;4.17;;;;;;;-1.12;68.89;99321.53;4702465;61;21167;-88
2021/01/30 14:58:03;;;;;;;5.62;2.30;;;;;;;-1.23;67.88;99327.71;4689673;60;1130182;-88
2021/01/30 15:03:09;;;;;;;8.53;5.00;;;;;;;-1.32;66.77;99335.46;4639574;60;1143883;-87
2021/01/30 15:08:14;;;;;;;5.00;2.77;;;;;;;-1.40;67.25;99326.38;4717771;61;1132131;-87
2021/01/30 15:52:11;;;;;;;42.80;16.60;;;;;;;-1.44;67.07;99348.56;4748139;60;21112;-90
2021/01/30 15:57:16;;;;;;;15.63;5.75;;;;;;;-1.40;67.25;99359.64;4626271;60;1134565;-90
2021/01/30 16:08:32;;;;;;;103.57;38.03;;;;;;;-1.45;67.68;99366.78;4687984;61;1134259;-91
2021/01/30 16:13:37;;;;;;;34.90;13.23;;;;;;;-1.46;67.98;99375.47;4675159;60;1140656;-89
2021/01/30 16:18:44;;;;;;;36.87;13.60;;;;;;;-1.44;68.21;99378.84;4638073;61;1138457;-90
2021/01/30 17:34:22;;;;;;;86.00;25.27;;;;;;;-1.89;68.21;99429.73;4562056;61;1134336;-88
2021/01/30 17:39:28;;;;;;;122.67;35.47;;;;;;;-1.94;68.29;99445.92;4555193;62;1138615;-89
2021/01/30 17:44:35;;;;;;;128.10;36.23;;;;;;;-2.06;68.22;99447.30;4519245;62;1140545;-89
2021/01/30 17:49:41;;;;;;;99.30;28.50;;;;;;;-2.25;68.13;99465.83;4509969;62;1140938;-89
2021/01/30 17:54:52;;;;;;;69.67;20.13;;;;;;;-2.46;68.18;99466.74;4570100;62;1138430;-89
2021/01/30 17:59:57;;;;;;;79.13;23.23;;;;;;;-2.66;68.35;99474.86;4636194;61;1139088;-89
2021/01/30 18:05:07;;;;;;;53.70;13.63;;;;;;;-2.78;68.66;99470.64;4613316;62;1138614;-89
2021/01/30 18:10:14;;;;;;;65.63;20.30;;;;;;;-2.84;68.81;99487.23;4628491;61;1138490;-89
2021/01/30 18:15:24;;;;;;;82.73;33.83;;;;;;;-2.93;68.87;99482.44;4672721;59;1138398;-88
2021/01/30 18:20:32;;;;;;;41.10;16.13;;;;;;;-2.96;69.01;99492.45;4655979;59;1138561;-90
2021/01/30 18:25:39;;;;;;;22.13;8.13;;;;;;;-3.00;68.97;99493.91;4680346;60;1138894;-90
2021/01/30 18:30:45;;;;;;;14.73;5.00;;;;;;;-3.06;68.74;99498.89;4719436;59;1136283;-90
2021/01/30 18:36:06;;;;;;;18.30;5.67;;;;;;;-3.16;68.75;99496.69;4686341;60;1136719;-88
2021/01/30 18:41:36;;;;;;;19.47;6.57;;;;;;;-3.23;68.93;99490.93;4685614;60;1136518;-89
2021/01/30 18:46:42;;;;;;;32.90;12.67;;;;;;;-3.28;69.12;99501.44;4645553;59;1136904;-89
2021/01/30 18:51:47;;;;;;;70.53;26.80;;;;;;;-3.23;69.26;99496.09;4704873;60;1138587;-90
2021/01/30 18:56:53;;;;;;;64.97;24.00;;;;;;;-3.21;68.96;99500.28;4677754;60;1138438;-89
2021/01/30 19:01:58;;;;;;;48.63;15.98;;;;;;;-3.29;68.74;99506.66;4698860;61;1138641;-90
2021/01/30 19:07:06;;;;;;;69.23;20.90;;;;;;;-3.42;68.83;99498.97;4723530;60;1138362;-90
2021/01/30 19:12:12;;;;;;;1071.03;319.83;;;;;;;-3.38;68.73;99517.36;4707978;61;1138498;-89
2021/01/30 19:17:19;;;;;;;266.23;70.13;;;;;;;-3.43;68.86;99523.13;4696415;60;1144604;-89
2021/01/30 19:23:02;;;;;;;131.07;38.00;;;;;;;-3.48;68.61;99528.91;4736655;59;1141577;-89
2021/01/30 19:28:18;;;;;;;22.60;7.50;;;;;;;-3.57;68.76;99524.48;4733208;60;1140448;-88
2021/01/30 19:33:25;;;;;;;126.73;51.33;;;;;;;-3.64;68.84;99532.49;4695098;60;1136365;-87
2021/01/30 19:38:42;;;;;;;58.27;23.17;;;;;;;-3.68;69.10;99535.66;4700085;60;1140450;-89
2021/01/30 19:43:48;;;;;;;69.67;21.70;;;;;;;-3.57;69.70;99544.31;4691664;60;1138505;-88
2021/01/30 19:48:56;;;;;;;145.20;38.70;;;;;;;-3.36;70.30;99548.69;4678042;59;1138966;-88
2021/01/30 19:54:01;;;;;;;131.32;36.17;;;;;;;-3.18;70.11;99549.75;4722061;61;1140690;-88
2021/01/30 19:59:07;;;;;;;102.10;28.43;;;;;;;-3.07;69.98;99547.63;4694156;61;1141041;-88
2021/01/30 20:04:13;;;;;;;63.93;17.43;;;;;;;-3.11;69.00;99555.11;4687700;59;1140532;-88
2021/01/30 20:09:18;;;;;;;41.70;13.20;;;;;;;-3.18;69.12;99556.22;4739072;60;1139313;-89
2021/01/30 20:14:32;;;;;;;375.77;88.25;;;;;;;-3.19;69.27;99557.96;4702758;59;1138638;-88
2021/01/30 20:19:47;;;;;;;346.57;90.80;;;;;;;-3.17;69.10;99566.95;4591244;61;1140500;-89
2021/01/30 20:24:52;;;;;;;211.77;53.77;;;;;;;-3.16;69.31;99573.82;4584766;61;1140569;-88
2021/01/30 20:29:58;;;;;;;163.33;48.00;;;;;;;-3.12;69.16;99576.70;4589901;61;1140791;-88
2021/01/30 20:35:04;;;;;;;426.93;119.80;;;;;;;-3.15;68.63;99571.63;4579294;61;1140566;-88
2021/01/30 20:40:13;;;;;;;535.47;150.00;;;;;;;-3.23;68.74;99578.39;4578613;61;1142940;-88
2021/01/30 20:45:27;;;;;;;273.20;76.55;;;;;;;-3.23;68.85;99579.69;4587228;61;1142713;-88
2021/01/30 20:50:33;;;;;;;381.30;108.17;;;;;;;-3.23;68.86;99580.98;4641927;61;1140465;-88
2021/01/30 20:55:39;;;;;;;165.23;54.30;;;;;;;-3.25;68.83;99579.34;4570561;61;1142816;-89
2021/01/30 21:00:45;;;;;;;126.27;39.37;;;;;;;-3.29;68.65;99587.66;4573579;61;1140760;-88
2021/01/30 21:05:50;;;;;;;177.37;53.27;;;;;;;-3.34;68.38;99592.13;4593889;61;1141495;-89
2021/01/30 21:10:56;;;;;;;212.90;78.03;;;;;;;-3.40;68.30;99587.20;4559517;61;1140737;-88
2021/01/30 21:16:01;;;;;;;169.55;55.95;;;;;;;-3.48;67.92;99598.24;4643922;61;1140541;-88
2021/01/30 21:21:07;;;;;;;166.50;56.13;;;;;;;-3.56;67.98;99601.56;4691661;60;1140851;-88
2021/01/30 21:26:20;;;;;;;149.13;46.03;;;;;;;-3.62;68.15;99600.47;4696505;59;1140531;-88
2021/01/30 21:31:28;;;;;;;95.70;35.67;;;;;;;-3.64;68.29;99606.13;4687826;60;1140916;-88
2021/01/30 21:36:33;;;;;;;81.93;27.53;;;;;;;-3.79;67.78;99604.92;4713817;60;1138608;-88
2021/01/30 21:41:39;;;;;;;98.50;33.30;;;;;;;-4.08;67.78;99600.73;4754285;60;1138506;-88
2021/01/30 21:46:46;;;;;;;111.70;34.33;;;;;;;-4.11;68.64;99602.55;4697364;60;1138870;-88
2021/01/30 21:51:52;;;;;;;224.00;55.33;;;;;;;-4.04;68.98;99603.61;4681890;61;1140496;-88
2021/01/30 21:56:57;;;;;;;178.40;51.30;;;;;;;-3.99;68.99;99609.48;4700944;59;1140883;-88
2021/01/30 22:02:03;;;;;;;229.38;66.10;;;;;;;-3.92;69.10;99614.83;4703418;60;1140749;-88
2021/01/30 22:07:09;;;;;;;186.30;55.53;;;;;;;-3.84;69.09;99617.17;4714827;59;1140692;-89
2021/01/30 22:12:14;;;;;;;148.63;44.97;;;;;;;-3.85;68.85;99623.23;4719854;60;1140705;-88
2021/01/30 22:17:20;;;;;;;211.53;78.10;;;;;;;-3.82;69.22;99633.91;4720657;61;1140369;-88
2021/01/30 22:22:26;;;;;;;121.10;33.53;;;;;;;-3.82;69.22;99628.30;4694105;60;1141115;-88
2021/01/30 22:27:31;;;;;;;65.20;22.77;;;;;;;-3.84;69.16;99624.91;4684834;61;1140675;-88
2021/01/30 22:32:38;;;;;;;43.90;16.03;;;;;;;-3.88;68.90;99625.06;4718336;60;1138365;-88
2021/01/30 22:37:48;;;;;;;42.53;14.37;;;;;;;-4.08;68.72;99618.80;4705672;60;1138825;-88
2021/01/30 22:42:55;;;;;;;49.70;16.33;;;;;;;-4.19;69.09;99632.52;4704726;59;1138477;-88
2021/01/30 22:48:00;;;;;;;70.83;24.70;;;;;;;-4.23;69.68;99633.49;4683765;60;1141474;-88
2021/01/30 22:53:07;;;;;;;54.67;18.80;;;;;;;-4.28;69.85;99641.38;4745154;60;1138646;-87
2021/01/30 22:58:13;;;;;;;29.57;7.23;;;;;;;-4.38;70.33;99643.01;4682767;61;1138399;-87
2021/01/30 23:03:22;;;;;;;28.03;8.93;;;;;;;-4.41;71.04;99650.39;4733436;59;1136703;-88
2021/01/30 23:08:29;;;;;;;35.37;11.03;;;;;;;-4.42;71.40;99641.41;4712103;59;1136458;-88
2021/01/30 23:13:36;;;;;;;49.93;15.30;;;;;;;-4.39;71.65;99649.06;4764182;61;1136394;-88
2021/01/30 23:18:42;;;;;;;47.90;16.30;;;;;;;-4.39;71.75;99654.22;4679515;60;1138375;-88
2021/01/30 23:23:48;;;;;;;58.50;17.57;;;;;;;-4.34;71.73;99657.52;4711236;59;1138314;-88
2021/01/30 23:28:53;;;;;;;47.70;17.73;;;;;;;-4.28;71.88;99658.63;4690024;60;1138347;-89
2021/01/30 23:34:08;;;;;;;44.48;14.53;;;;;;;-4.22;71.80;99662.73;4676769;60;1138878;-87
2021/01/30 23:39:14;;;;;;;46.30;15.80;;;;;;;-4.19;71.83;99662.20;4699212;60;1138396;-87
2021/01/30 23:44:19;;;;;;;37.07;12.53;;;;;;;-4.16;71.93;99667.72;4712166;61;1138469;-87
2021/01/30 23:49:25;;;;;;;28.03;9.93;;;;;;;-4.17;72.03;99660.42;4692333;59;1138468;-88
2021/01/30 23:54:30;;;;;;;116.97;46.57;;;;;;;-4.09;72.24;99668.75;4704166;59;1136300;-88
2021/01/30 23:59:36;;;;;;;73.02;22.80;;;;;;;-4.02;72.28;99670.70;4681930;61;1140399;-88
